Terminal Aerodrome Forecast
Issued by NWS

Home | Current Version | Previous Version | Graphics & Text | Print | Product List | Glossary On
Versions: 1 2 3 4 5 6 7 8 9 10 11 12 13 14 15 16 17 18 19 20 21 22 23 24 25 26
389
FTUS43 KBIS 271644 AAC
TAFMOT
TAF AMD
KMOT 271644Z 2717/2812 VRB05KT P6SM SCT003 BKN090
     FM271800 01006KT P6SM SCT006 BKN100
     FM280600 06007KT 6SM BR OVC010
     FM281100 04006KT 1SM BR OVC003=

USA.gov is the U.S. government's official web portal to all federal, state and local government web resources and services.